sensor_id;sensor_type;location;lat;lon;timestamp;P1;durP1;ratioP1;P2;durP2;ratioP2
6113;SDS011;3087;48.392;10.836;2023-07-22T00:00:58;3.92;;;3.42;;
6113;SDS011;3087;48.392;10.836;2023-07-22T00:03:24;5.65;;;3.50;;
6113;SDS011;3087;48.392;10.836;2023-07-22T00:06:01;3.70;;;3.22;;
6113;SDS011;3087;48.392;10.836;2023-07-22T00:08:36;4.25;;;3.20;;
6113;SDS011;3087;48.392;10.836;2023-07-22T00:11:06;5.68;;;3.83;;
6113;SDS011;3087;48.392;10.836;2023-07-22T00:13:33;4.63;;;3.67;;
6113;SDS011;3087;48.392;10.836;2023-07-22T00:15:59;4.93;;;3.72;;
6113;SDS011;3087;48.392;10.836;2023-07-22T00:18:25;5.45;;;3.80;;
6113;SDS011;3087;48.392;10.836;2023-07-22T00:20:52;5.05;;;3.42;;
6113;SDS011;3087;48.392;10.836;2023-07-22T00:23:18;3.88;;;3.42;;
6113;SDS011;3087;48.392;10.836;2023-07-22T00:25:45;5.63;;;3.85;;
6113;SDS011;3087;48.392;10.836;2023-07-22T00:28:11;6.97;;;3.60;;
6113;SDS011;3087;48.392;10.836;2023-07-22T00:30:36;3.45;;;3.10;;
6113;SDS011;3087;48.392;10.836;2023-07-22T00:33:02;4.40;;;3.50;;
6113;SDS011;3087;48.392;10.836;2023-07-22T00:35:27;5.97;;;3.60;;
6113;SDS011;3087;48.392;10.836;2023-07-22T00:37:53;5.10;;;3.47;;
6113;SDS011;3087;48.392;10.836;2023-07-22T00:40:18;5.80;;;3.92;;
6113;SDS011;3087;48.392;10.836;2023-07-22T00:42:44;5.55;;;3.72;;
6113;SDS011;3087;48.392;10.836;2023-07-22T00:45:10;4.65;;;3.75;;
6113;SDS011;3087;48.392;10.836;2023-07-22T00:47:36;4.65;;;3.53;;
6113;SDS011;3087;48.392;10.836;2023-07-22T00:50:02;6.43;;;3.63;;
6113;SDS011;3087;48.392;10.836;2023-07-22T00:52:29;8.18;;;4.85;;
6113;SDS011;3087;48.392;10.836;2023-07-22T00:54:55;7.38;;;3.90;;
6113;SDS011;3087;48.392;10.836;2023-07-22T00:57:21;4.07;;;3.67;;
6113;SDS011;3087;48.392;10.836;2023-07-22T00:59:47;4.43;;;3.78;;
6113;SDS011;3087;48.392;10.836;2023-07-22T01:02:13;5.15;;;4.28;;
6113;SDS011;3087;48.392;10.836;2023-07-22T01:04:38;5.88;;;4.72;;
6113;SDS011;3087;48.392;10.836;2023-07-22T01:07:05;6.70;;;3.95;;
6113;SDS011;3087;48.392;10.836;2023-07-22T01:09:38;4.47;;;3.70;;
6113;SDS011;3087;48.392;10.836;2023-07-22T01:12:04;5.20;;;4.32;;
6113;SDS011;3087;48.392;10.836;2023-07-22T01:14:37;6.97;;;5.10;;
6113;SDS011;3087;48.392;10.836;2023-07-22T01:17:05;4.20;;;3.72;;
6113;SDS011;3087;48.392;10.836;2023-07-22T01:19:32;11.30;;;8.43;;
6113;SDS011;3087;48.392;10.836;2023-07-22T01:22:03;10.80;;;4.35;;
6113;SDS011;3087;48.392;10.836;2023-07-22T01:24:31;6.53;;;4.55;;
6113;SDS011;3087;48.392;10.836;2023-07-22T01:26:57;4.72;;;3.78;;
6113;SDS011;3087;48.392;10.836;2023-07-22T01:29:23;5.57;;;3.80;;
6113;SDS011;3087;48.392;10.836;2023-07-22T01:31:50;7.43;;;5.43;;
6113;SDS011;3087;48.392;10.836;2023-07-22T01:34:17;4.75;;;3.58;;
6113;SDS011;3087;48.392;10.836;2023-07-22T01:36:44;5.93;;;4.30;;
6113;SDS011;3087;48.392;10.836;2023-07-22T01:39:12;5.30;;;3.90;;
6113;SDS011;3087;48.392;10.836;2023-07-22T01:41:41;6.57;;;3.85;;
6113;SDS011;3087;48.392;10.836;2023-07-22T01:44:07;5.97;;;3.45;;
6113;SDS011;3087;48.392;10.836;2023-07-22T01:46:33;5.97;;;4.18;;
6113;SDS011;3087;48.392;10.836;2023-07-22T01:49:00;4.95;;;4.32;;
6113;SDS011;3087;48.392;10.836;2023-07-22T01:51:32;7.10;;;3.90;;
6113;SDS011;3087;48.392;10.836;2023-07-22T01:54:05;10.68;;;5.43;;
6113;SDS011;3087;48.392;10.836;2023-07-22T01:56:32;4.97;;;4.18;;
6113;SDS011;3087;48.392;10.836;2023-07-22T01:58:58;6.22;;;5.03;;
6113;SDS011;3087;48.392;10.836;2023-07-22T02:01:23;7.45;;;5.70;;
6113;SDS011;3087;48.392;10.836;2023-07-22T02:03:49;5.07;;;3.53;;
6113;SDS011;3087;48.392;10.836;2023-07-22T02:06:15;7.05;;;6.03;;
6113;SDS011;3087;48.392;10.836;2023-07-22T02:08:40;5.13;;;4.63;;
6113;SDS011;3087;48.392;10.836;2023-07-22T02:11:06;8.95;;;5.93;;
6113;SDS011;3087;48.392;10.836;2023-07-22T02:13:33;8.30;;;5.63;;
6113;SDS011;3087;48.392;10.836;2023-07-22T02:16:00;7.78;;;5.45;;
6113;SDS011;3087;48.392;10.836;2023-07-22T02:18:27;7.10;;;4.85;;
6113;SDS011;3087;48.392;10.836;2023-07-22T02:20:53;7.35;;;4.35;;
6113;SDS011;3087;48.392;10.836;2023-07-22T02:23:19;5.25;;;3.88;;
6113;SDS011;3087;48.392;10.836;2023-07-22T02:25:52;7.35;;;3.80;;
6113;SDS011;3087;48.392;10.836;2023-07-22T02:28:18;5.10;;;4.05;;
6113;SDS011;3087;48.392;10.836;2023-07-22T02:30:49;6.28;;;4.60;;
6113;SDS011;3087;48.392;10.836;2023-07-22T02:33:17;5.25;;;4.70;;
6113;SDS011;3087;48.392;10.836;2023-07-22T02:35:42;5.55;;;3.92;;
6113;SDS011;3087;48.392;10.836;2023-07-22T02:38:08;4.72;;;4.22;;
6113;SDS011;3087;48.392;10.836;2023-07-22T02:40:35;4.80;;;3.97;;
6113;SDS011;3087;48.392;10.836;2023-07-22T02:43:01;6.40;;;4.50;;
6113;SDS011;3087;48.392;10.836;2023-07-22T02:45:27;6.32;;;4.75;;
6113;SDS011;3087;48.392;10.836;2023-07-22T02:47:53;7.68;;;4.40;;
6113;SDS011;3087;48.392;10.836;2023-07-22T02:50:21;5.82;;;4.25;;
6113;SDS011;3087;48.392;10.836;2023-07-22T02:52:50;6.95;;;4.60;;
6113;SDS011;3087;48.392;10.836;2023-07-22T02:55:16;6.05;;;4.13;;
6113;SDS011;3087;48.392;10.836;2023-07-22T02:57:43;3.70;;;3.40;;
6113;SDS011;3087;48.392;10.836;2023-07-22T03:00:11;6.07;;;4.65;;
6113;SDS011;3087;48.392;10.836;2023-07-22T03:02:38;6.47;;;5.07;;
6113;SDS011;3087;48.392;10.836;2023-07-22T03:05:04;8.27;;;4.88;;
6113;SDS011;3087;48.392;10.836;2023-07-22T03:07:35;6.05;;;3.95;;
6113;SDS011;3087;48.392;10.836;2023-07-22T03:10:01;6.35;;;5.05;;
6113;SDS011;3087;48.392;10.836;2023-07-22T03:12:27;6.22;;;4.70;;
6113;SDS011;3087;48.392;10.836;2023-07-22T03:14:53;5.68;;;4.90;;
6113;SDS011;3087;48.392;10.836;2023-07-22T03:17:19;7.07;;;5.05;;
6113;SDS011;3087;48.392;10.836;2023-07-22T03:19:45;7.70;;;4.60;;
6113;SDS011;3087;48.392;10.836;2023-07-22T03:22:13;7.43;;;5.07;;
6113;SDS011;3087;48.392;10.836;2023-07-22T03:24:41;5.63;;;5.07;;
6113;SDS011;3087;48.392;10.836;2023-07-22T03:27:07;5.93;;;4.90;;
6113;SDS011;3087;48.392;10.836;2023-07-22T03:29:32;6.25;;;5.50;;
6113;SDS011;3087;48.392;10.836;2023-07-22T03:31:58;5.72;;;4.60;;
6113;SDS011;3087;48.392;10.836;2023-07-22T03:34:28;6.15;;;4.85;;
6113;SDS011;3087;48.392;10.836;2023-07-22T03:36:54;8.10;;;6.40;;
6113;SDS011;3087;48.392;10.836;2023-07-22T03:39:20;7.78;;;4.32;;
6113;SDS011;3087;48.392;10.836;2023-07-22T03:41:46;6.05;;;4.50;;
6113;SDS011;3087;48.392;10.836;2023-07-22T03:44:12;5.38;;;4.25;;
6113;SDS011;3087;48.392;10.836;2023-07-22T03:46:38;6.90;;;5.43;;
6113;SDS011;3087;48.392;10.836;2023-07-22T03:49:04;6.60;;;4.97;;
6113;SDS011;3087;48.392;10.836;2023-07-22T03:51:29;10.75;;;6.53;;
6113;SDS011;3087;48.392;10.836;2023-07-22T03:53:55;6.97;;;5.70;;
6113;SDS011;3087;48.392;10.836;2023-07-22T03:56:21;6.60;;;4.78;;
6113;SDS011;3087;48.392;10.836;2023-07-22T03:58:48;8.38;;;5.57;;
6113;SDS011;3087;48.392;10.836;2023-07-22T04:01:14;6.25;;;5.20;;
6113;SDS011;3087;48.392;10.836;2023-07-22T04:03:40;7.80;;;4.30;;
6113;SDS011;3087;48.392;10.836;2023-07-22T04:06:06;9.02;;;5.32;;
6113;SDS011;3087;48.392;10.836;2023-07-22T04:08:31;6.25;;;5.63;;
6113;SDS011;3087;48.392;10.836;2023-07-22T04:10:57;6.25;;;5.32;;
6113;SDS011;3087;48.392;10.836;2023-07-22T04:13:23;6.85;;;5.90;;
6113;SDS011;3087;48.392;10.836;2023-07-22T04:15:49;9.70;;;6.10;;
6113;SDS011;3087;48.392;10.836;2023-07-22T04:18:15;10.00;;;4.97;;
6113;SDS011;3087;48.392;10.836;2023-07-22T04:20:45;10.30;;;7.15;;
6113;SDS011;3087;48.392;10.836;2023-07-22T04:23:11;6.38;;;5.68;;
6113;SDS011;3087;48.392;10.836;2023-07-22T04:25:43;7.15;;;5.15;;
6113;SDS011;3087;48.392;10.836;2023-07-22T04:28:10;7.95;;;5.80;;
6113;SDS011;3087;48.392;10.836;2023-07-22T04:30:36;9.18;;;6.45;;
6113;SDS011;3087;48.392;10.836;2023-07-22T04:33:02;6.90;;;5.53;;
6113;SDS011;3087;48.392;10.836;2023-07-22T04:35:31;7.28;;;5.70;;
6113;SDS011;3087;48.392;10.836;2023-07-22T04:37:57;6.82;;;5.13;;
6113;SDS011;3087;48.392;10.836;2023-07-22T04:40:23;8.18;;;5.65;;
6113;SDS011;3087;48.392;10.836;2023-07-22T04:42:50;6.88;;;5.72;;
6113;SDS011;3087;48.392;10.836;2023-07-22T04:45:16;6.55;;;5.75;;
6113;SDS011;3087;48.392;10.836;2023-07-22T04:47:43;9.52;;;5.90;;
6113;SDS011;3087;48.392;10.836;2023-07-22T04:50:11;6.43;;;5.40;;
6113;SDS011;3087;48.392;10.836;2023-07-22T04:52:37;8.35;;;6.03;;
6113;SDS011;3087;48.392;10.836;2023-07-22T04:55:03;6.65;;;5.20;;
6113;SDS011;3087;48.392;10.836;2023-07-22T04:57:37;6.03;;;5.10;;
6113;SDS011;3087;48.392;10.836;2023-07-22T05:00:06;6.55;;;5.30;;
6113;SDS011;3087;48.392;10.836;2023-07-22T05:02:34;7.30;;;4.95;;
6113;SDS011;3087;48.392;10.836;2023-07-22T05:05:00;5.60;;;4.72;;
6113;SDS011;3087;48.392;10.836;2023-07-22T05:07:25;7.07;;;4.88;;
6113;SDS011;3087;48.392;10.836;2023-07-22T05:09:51;5.57;;;4.10;;
6113;SDS011;3087;48.392;10.836;2023-07-22T05:12:18;5.05;;;4.47;;
6113;SDS011;3087;48.392;10.836;2023-07-22T05:14:48;7.55;;;5.75;;
6113;SDS011;3087;48.392;10.836;2023-07-22T05:17:14;6.70;;;4.68;;
6113;SDS011;3087;48.392;10.836;2023-07-22T05:19:40;5.57;;;4.32;;
6113;SDS011;3087;48.392;10.836;2023-07-22T05:22:06;4.35;;;3.95;;
6113;SDS011;3087;48.392;10.836;2023-07-22T05:24:32;8.50;;;5.53;;
6113;SDS011;3087;48.392;10.836;2023-07-22T05:26:57;6.95;;;4.55;;
6113;SDS011;3087;48.392;10.836;2023-07-22T05:29:23;6.97;;;5.32;;
6113;SDS011;3087;48.392;10.836;2023-07-22T05:31:48;7.70;;;4.78;;
6113;SDS011;3087;48.392;10.836;2023-07-22T05:34:14;6.28;;;5.18;;
6113;SDS011;3087;48.392;10.836;2023-07-22T05:36:39;7.47;;;4.63;;
6113;SDS011;3087;48.392;10.836;2023-07-22T05:39:05;5.53;;;4.95;;
6113;SDS011;3087;48.392;10.836;2023-07-22T05:41:32;7.38;;;4.28;;
6113;SDS011;3087;48.392;10.836;2023-07-22T05:43:58;7.07;;;5.05;;
6113;SDS011;3087;48.392;10.836;2023-07-22T05:46:24;8.18;;;7.38;;
6113;SDS011;3087;48.392;10.836;2023-07-22T05:48:49;9.38;;;4.78;;
6113;SDS011;3087;48.392;10.836;2023-07-22T05:51:15;6.93;;;4.97;;
6113;SDS011;3087;48.392;10.836;2023-07-22T05:53:41;8.82;;;4.63;;
6113;SDS011;3087;48.392;10.836;2023-07-22T05:56:07;5.82;;;5.03;;
6113;SDS011;3087;48.392;10.836;2023-07-22T05:58:33;7.93;;;4.10;;
6113;SDS011;3087;48.392;10.836;2023-07-22T06:00:59;7.30;;;4.25;;
6113;SDS011;3087;48.392;10.836;2023-07-22T06:03:25;5.38;;;4.13;;
6113;SDS011;3087;48.392;10.836;2023-07-22T06:05:51;4.60;;;3.78;;
6113;SDS011;3087;48.392;10.836;2023-07-22T06:08:16;4.75;;;3.63;;
6113;SDS011;3087;48.392;10.836;2023-07-22T06:10:42;4.80;;;3.67;;
6113;SDS011;3087;48.392;10.836;2023-07-22T06:13:08;5.78;;;4.50;;
6113;SDS011;3087;48.392;10.836;2023-07-22T06:15:33;5.00;;;4.30;;
6113;SDS011;3087;48.392;10.836;2023-07-22T06:17:59;7.82;;;4.45;;
6113;SDS011;3087;48.392;10.836;2023-07-22T06:20:25;5.18;;;4.05;;
6113;SDS011;3087;48.392;10.836;2023-07-22T06:22:51;5.78;;;3.88;;
6113;SDS011;3087;48.392;10.836;2023-07-22T06:25:17;5.13;;;3.67;;
6113;SDS011;3087;48.392;10.836;2023-07-22T06:27:42;5.30;;;3.65;;
6113;SDS011;3087;48.392;10.836;2023-07-22T06:30:08;6.95;;;4.00;;
6113;SDS011;3087;48.392;10.836;2023-07-22T06:32:36;4.88;;;3.90;;
6113;SDS011;3087;48.392;10.836;2023-07-22T06:35:03;4.65;;;3.88;;
6113;SDS011;3087;48.392;10.836;2023-07-22T06:37:29;7.32;;;3.95;;
6113;SDS011;3087;48.392;10.836;2023-07-22T06:39:55;4.40;;;3.83;;
6113;SDS011;3087;48.392;10.836;2023-07-22T06:42:20;7.18;;;4.43;;
6113;SDS011;3087;48.392;10.836;2023-07-22T06:44:46;6.05;;;4.60;;
6113;SDS011;3087;48.392;10.836;2023-07-22T06:47:11;4.78;;;4.20;;
6113;SDS011;3087;48.392;10.836;2023-07-22T06:49:37;4.35;;;3.45;;
6113;SDS011;3087;48.392;10.836;2023-07-22T06:52:03;4.35;;;3.95;;
6113;SDS011;3087;48.392;10.836;2023-07-22T06:54:29;5.28;;;4.55;;
6113;SDS011;3087;48.392;10.836;2023-07-22T06:56:55;5.57;;;4.75;;
6113;SDS011;3087;48.392;10.836;2023-07-22T06:59:20;5.35;;;3.97;;
6113;SDS011;3087;48.392;10.836;2023-07-22T07:01:46;6.90;;;4.20;;
6113;SDS011;3087;48.392;10.836;2023-07-22T07:04:12;5.15;;;3.92;;
6113;SDS011;3087;48.392;10.836;2023-07-22T07:06:37;6.40;;;5.00;;
6113;SDS011;3087;48.392;10.836;2023-07-22T07:09:03;6.10;;;4.55;;
6113;SDS011;3087;48.392;10.836;2023-07-22T07:11:30;5.18;;;4.53;;
6113;SDS011;3087;48.392;10.836;2023-07-22T07:13:56;4.50;;;3.60;;
6113;SDS011;3087;48.392;10.836;2023-07-22T07:16:23;4.65;;;3.45;;
6113;SDS011;3087;48.392;10.836;2023-07-22T07:18:50;6.60;;;4.05;;
6113;SDS011;3087;48.392;10.836;2023-07-22T07:21:17;6.95;;;3.90;;
6113;SDS011;3087;48.392;10.836;2023-07-22T07:23:43;4.80;;;3.78;;
6113;SDS011;3087;48.392;10.836;2023-07-22T07:26:09;5.72;;;4.43;;
6113;SDS011;3087;48.392;10.836;2023-07-22T07:28:35;5.35;;;3.75;;
6113;SDS011;3087;48.392;10.836;2023-07-22T07:31:00;6.70;;;6.00;;
6113;SDS011;3087;48.392;10.836;2023-07-22T07:33:26;7.40;;;3.78;;
6113;SDS011;3087;48.392;10.836;2023-07-22T07:35:52;4.05;;;3.65;;
6113;SDS011;3087;48.392;10.836;2023-07-22T07:38:17;6.32;;;4.63;;
6113;SDS011;3087;48.392;10.836;2023-07-22T07:40:43;10.07;;;6.60;;
6113;SDS011;3087;48.392;10.836;2023-07-22T07:43:08;8.13;;;4.65;;
6113;SDS011;3087;48.392;10.836;2023-07-22T07:45:35;4.32;;;3.30;;
6113;SDS011;3087;48.392;10.836;2023-07-22T07:48:04;3.28;;;2.90;;
6113;SDS011;3087;48.392;10.836;2023-07-22T07:50:30;4.50;;;3.50;;
6113;SDS011;3087;48.392;10.836;2023-07-22T07:52:56;5.53;;;3.60;;
6113;SDS011;3087;48.392;10.836;2023-07-22T07:55:21;7.20;;;3.33;;
6113;SDS011;3087;48.392;10.836;2023-07-22T07:57:47;4.13;;;3.40;;
6113;SDS011;3087;48.392;10.836;2023-07-22T08:00:12;4.15;;;3.45;;
6113;SDS011;3087;48.392;10.836;2023-07-22T08:02:38;5.07;;;3.72;;
6113;SDS011;3087;48.392;10.836;2023-07-22T08:05:04;3.72;;;3.30;;
6113;SDS011;3087;48.392;10.836;2023-07-22T08:07:30;5.47;;;3.80;;
6113;SDS011;3087;48.392;10.836;2023-07-22T08:09:56;6.63;;;4.93;;
6113;SDS011;3087;48.392;10.836;2023-07-22T08:12:23;4.63;;;3.30;;
6113;SDS011;3087;48.392;10.836;2023-07-22T08:14:48;4.00;;;3.53;;
6113;SDS011;3087;48.392;10.836;2023-07-22T08:17:14;5.07;;;3.50;;
6113;SDS011;3087;48.392;10.836;2023-07-22T08:19:39;6.80;;;3.38;;
6113;SDS011;3087;48.392;10.836;2023-07-22T08:22:05;4.10;;;3.25;;
6113;SDS011;3087;48.392;10.836;2023-07-22T08:24:31;5.22;;;4.55;;
6113;SDS011;3087;48.392;10.836;2023-07-22T08:26:57;4.68;;;3.75;;
6113;SDS011;3087;48.392;10.836;2023-07-22T08:29:23;3.95;;;3.20;;
6113;SDS011;3087;48.392;10.836;2023-07-22T08:31:49;4.45;;;3.05;;
6113;SDS011;3087;48.392;10.836;2023-07-22T08:34:15;4.80;;;3.47;;
6113;SDS011;3087;48.392;10.836;2023-07-22T08:36:41;3.55;;;3.10;;
6113;SDS011;3087;48.392;10.836;2023-07-22T08:39:06;5.00;;;3.40;;
6113;SDS011;3087;48.392;10.836;2023-07-22T08:41:32;3.97;;;3.25;;
6113;SDS011;3087;48.392;10.836;2023-07-22T08:43:59;4.20;;;2.95;;
6113;SDS011;3087;48.392;10.836;2023-07-22T08:46:25;5.38;;;3.50;;
6113;SDS011;3087;48.392;10.836;2023-07-22T08:48:57;4.35;;;3.58;;
6113;SDS011;3087;48.392;10.836;2023-07-22T08:51:25;3.90;;;3.47;;
6113;SDS011;3087;48.392;10.836;2023-07-22T08:53:53;4.30;;;2.80;;
6113;SDS011;3087;48.392;10.836;2023-07-22T08:56:23;4.28;;;2.85;;
6113;SDS011;3087;48.392;10.836;2023-07-22T08:58:50;4.95;;;2.60;;
6113;SDS011;3087;48.392;10.836;2023-07-22T09:01:17;4.88;;;3.22;;
6113;SDS011;3087;48.392;10.836;2023-07-22T09:03:43;5.50;;;2.75;;
6113;SDS011;3087;48.392;10.836;2023-07-22T09:06:09;4.60;;;3.33;;
6113;SDS011;3087;48.392;10.836;2023-07-22T09:08:35;3.47;;;3.00;;
6113;SDS011;3087;48.392;10.836;2023-07-22T09:11:01;3.78;;;2.83;;
6113;SDS011;3087;48.392;10.836;2023-07-22T09:13:27;4.43;;;3.25;;
6113;SDS011;3087;48.392;10.836;2023-07-22T09:15:54;3.40;;;2.72;;
6113;SDS011;3087;48.392;10.836;2023-07-22T09:18:23;4.35;;;3.20;;
6113;SDS011;3087;48.392;10.836;2023-07-22T09:20:49;3.35;;;2.80;;
6113;SDS011;3087;48.392;10.836;2023-07-22T09:23:15;4.53;;;3.28;;
6113;SDS011;3087;48.392;10.836;2023-07-22T09:25:41;3.03;;;2.45;;
6113;SDS011;3087;48.392;10.836;2023-07-22T09:28:07;4.95;;;2.95;;
6113;SDS011;3087;48.392;10.836;2023-07-22T09:30:37;5.43;;;3.42;;
6113;SDS011;3087;48.392;10.836;2023-07-22T09:33:05;4.05;;;3.15;;
6113;SDS011;3087;48.392;10.836;2023-07-22T09:35:47;3.05;;;2.70;;
6113;SDS011;3087;48.392;10.836;2023-07-22T09:38:14;3.55;;;2.70;;
6113;SDS011;3087;48.392;10.836;2023-07-22T09:40:46;5.15;;;2.83;;
6113;SDS011;3087;48.392;10.836;2023-07-22T09:43:12;7.72;;;3.78;;
6113;SDS011;3087;48.392;10.836;2023-07-22T09:45:38;4.43;;;3.40;;
6113;SDS011;3087;48.392;10.836;2023-07-22T09:48:03;6.32;;;3.08;;
6113;SDS011;3087;48.392;10.836;2023-07-22T09:50:30;6.13;;;2.97;;
6113;SDS011;3087;48.392;10.836;2023-07-22T09:52:56;3.33;;;2.90;;
6113;SDS011;3087;48.392;10.836;2023-07-22T09:55:24;3.22;;;2.85;;
6113;SDS011;3087;48.392;10.836;2023-07-22T09:57:54;3.42;;;2.80;;
6113;SDS011;3087;48.392;10.836;2023-07-22T10:00:20;5.25;;;2.72;;
6113;SDS011;3087;48.392;10.836;2023-07-22T10:02:48;4.53;;;2.88;;
6113;SDS011;3087;48.392;10.836;2023-07-22T10:05:15;3.88;;;2.88;;
6113;SDS011;3087;48.392;10.836;2023-07-22T10:07:44;4.65;;;3.70;;
6113;SDS011;3087;48.392;10.836;2023-07-22T10:10:16;6.03;;;4.10;;
6113;SDS011;3087;48.392;10.836;2023-07-22T10:12:43;7.90;;;3.95;;
6113;SDS011;3087;48.392;10.836;2023-07-22T10:15:10;7.70;;;3.58;;
6113;SDS011;3087;48.392;10.836;2023-07-22T10:17:37;3.80;;;3.33;;
6113;SDS011;3087;48.392;10.836;2023-07-22T10:20:07;3.40;;;2.60;;
6113;SDS011;3087;48.392;10.836;2023-07-22T10:22:39;3.65;;;3.10;;
6113;SDS011;3087;48.392;10.836;2023-07-22T10:25:10;4.05;;;2.90;;
6113;SDS011;3087;48.392;10.836;2023-07-22T10:27:38;9.23;;;2.53;;
6113;SDS011;3087;48.392;10.836;2023-07-22T10:30:07;2.95;;;2.63;;
6113;SDS011;3087;48.392;10.836;2023-07-22T10:32:38;4.95;;;2.75;;
6113;SDS011;3087;48.392;10.836;2023-07-22T10:35:07;3.35;;;2.90;;
6113;SDS011;3087;48.392;10.836;2023-07-22T10:37:35;5.13;;;4.43;;
6113;SDS011;3087;48.392;10.836;2023-07-22T10:40:15;5.15;;;2.70;;
6113;SDS011;3087;48.392;10.836;2023-07-22T10:42:43;3.72;;;2.85;;
6113;SDS011;3087;48.392;10.836;2023-07-22T10:45:53;5.13;;;3.20;;
6113;SDS011;3087;48.392;10.836;2023-07-22T10:48:17;3.97;;;2.83;;
6113;SDS011;3087;48.392;10.836;2023-07-22T10:50:44;2.40;;;2.15;;
6113;SDS011;3087;48.392;10.836;2023-07-22T11:04:10;3.67;;;2.90;;
6113;SDS011;3087;48.392;10.836;2023-07-22T11:06:39;3.63;;;3.25;;
6113;SDS011;3087;48.392;10.836;2023-07-22T11:12:01;3.15;;;2.83;;
6113;SDS011;3087;48.392;10.836;2023-07-22T11:14:30;4.97;;;3.42;;
6113;SDS011;3087;48.392;10.836;2023-07-22T11:16:57;3.55;;;3.20;;
6113;SDS011;3087;48.392;10.836;2023-07-22T11:19:24;3.63;;;3.33;;
6113;SDS011;3087;48.392;10.836;2023-07-22T11:21:50;2.90;;;2.60;;
6113;SDS011;3087;48.392;10.836;2023-07-22T11:24:17;3.17;;;2.88;;
6113;SDS011;3087;48.392;10.836;2023-07-22T11:26:44;2.70;;;2.50;;
6113;SDS011;3087;48.392;10.836;2023-07-22T11:29:11;3.05;;;2.75;;
6113;SDS011;3087;48.392;10.836;2023-07-22T11:31:38;4.85;;;3.15;;
6113;SDS011;3087;48.392;10.836;2023-07-22T11:36:39;3.25;;;2.75;;
6113;SDS011;3087;48.392;10.836;2023-07-22T11:39:05;3.80;;;3.10;;
6113;SDS011;3087;48.392;10.836;2023-07-22T11:41:32;5.32;;;2.97;;
6113;SDS011;3087;48.392;10.836;2023-07-22T11:43:58;3.45;;;3.10;;
6113;SDS011;3087;48.392;10.836;2023-07-22T11:46:28;3.75;;;3.30;;
6113;SDS011;3087;48.392;10.836;2023-07-22T11:48:54;3.97;;;3.05;;
6113;SDS011;3087;48.392;10.836;2023-07-22T11:51:21;3.63;;;3.25;;
6113;SDS011;3087;48.392;10.836;2023-07-22T11:53:49;3.10;;;2.80;;
6113;SDS011;3087;48.392;10.836;2023-07-22T11:56:23;3.60;;;3.30;;
6113;SDS011;3087;48.392;10.836;2023-07-22T11:58:53;3.78;;;3.17;;
6113;SDS011;3087;48.392;10.836;2023-07-22T12:01:20;5.05;;;3.65;;
6113;SDS011;3087;48.392;10.836;2023-07-22T12:03:46;5.13;;;3.65;;
6113;SDS011;3087;48.392;10.836;2023-07-22T12:06:12;5.10;;;3.92;;
6113;SDS011;3087;48.392;10.836;2023-07-22T12:08:45;3.00;;;2.50;;
6113;SDS011;3087;48.392;10.836;2023-07-22T12:11:15;3.22;;;2.83;;
6113;SDS011;3087;48.392;10.836;2023-07-22T12:13:42;4.72;;;3.13;;
6113;SDS011;3087;48.392;10.836;2023-07-22T12:16:11;4.32;;;3.25;;
6113;SDS011;3087;48.392;10.836;2023-07-22T12:18:44;3.85;;;3.45;;
6113;SDS011;3087;48.392;10.836;2023-07-22T12:21:10;4.45;;;2.70;;
6113;SDS011;3087;48.392;10.836;2023-07-22T12:23:36;3.28;;;2.70;;
6113;SDS011;3087;48.392;10.836;2023-07-22T12:26:02;4.22;;;2.65;;
6113;SDS011;3087;48.392;10.836;2023-07-22T12:28:28;4.25;;;2.72;;
6113;SDS011;3087;48.392;10.836;2023-07-22T12:30:54;5.05;;;3.20;;
6113;SDS011;3087;48.392;10.836;2023-07-22T12:33:22;3.85;;;2.95;;
6113;SDS011;3087;48.392;10.836;2023-07-22T12:35:49;3.42;;;2.97;;
6113;SDS011;3087;48.392;10.836;2023-07-22T12:38:15;4.13;;;2.90;;
6113;SDS011;3087;48.392;10.836;2023-07-22T12:40:41;4.10;;;3.30;;
6113;SDS011;3087;48.392;10.836;2023-07-22T12:43:06;2.92;;;2.60;;
6113;SDS011;3087;48.392;10.836;2023-07-22T12:45:33;4.07;;;3.05;;
6113;SDS011;3087;48.392;10.836;2023-07-22T12:47:58;3.00;;;2.70;;
6113;SDS011;3087;48.392;10.836;2023-07-22T12:50:24;4.38;;;2.97;;
6113;SDS011;3087;48.392;10.836;2023-07-22T12:52:50;3.42;;;2.70;;
6113;SDS011;3087;48.392;10.836;2023-07-22T12:55:15;5.80;;;4.95;;
6113;SDS011;3087;48.392;10.836;2023-07-22T12:57:41;4.32;;;2.60;;
6113;SDS011;3087;48.392;10.836;2023-07-22T13:00:06;3.83;;;3.15;;
6113;SDS011;3087;48.392;10.836;2023-07-22T13:02:35;4.65;;;2.88;;
6113;SDS011;3087;48.392;10.836;2023-07-22T13:05:01;8.63;;;3.20;;
6113;SDS011;3087;48.392;10.836;2023-07-22T13:07:27;5.72;;;4.18;;
6113;SDS011;3087;48.392;10.836;2023-07-22T13:09:52;4.35;;;3.95;;
6113;SDS011;3087;48.392;10.836;2023-07-22T13:12:21;3.40;;;2.50;;
6113;SDS011;3087;48.392;10.836;2023-07-22T13:14:47;3.80;;;3.10;;
6113;SDS011;3087;48.392;10.836;2023-07-22T13:17:13;6.45;;;3.70;;
6113;SDS011;3087;48.392;10.836;2023-07-22T13:19:38;4.43;;;3.78;;
6113;SDS011;3087;48.392;10.836;2023-07-22T13:22:04;7.60;;;4.72;;
6113;SDS011;3087;48.392;10.836;2023-07-22T13:24:29;5.20;;;4.28;;
6113;SDS011;3087;48.392;10.836;2023-07-22T13:26:55;4.30;;;3.80;;
6113;SDS011;3087;48.392;10.836;2023-07-22T13:29:21;3.83;;;3.03;;
6113;SDS011;3087;48.392;10.836;2023-07-22T13:31:46;3.65;;;2.97;;
6113;SDS011;3087;48.392;10.836;2023-07-22T13:34:12;4.63;;;3.67;;
6113;SDS011;3087;48.392;10.836;2023-07-22T13:36:38;4.22;;;2.97;;
6113;SDS011;3087;48.392;10.836;2023-07-22T13:39:03;7.22;;;3.65;;
6113;SDS011;3087;48.392;10.836;2023-07-22T13:41:29;4.25;;;3.40;;
6113;SDS011;3087;48.392;10.836;2023-07-22T13:43:54;3.42;;;3.13;;
6113;SDS011;3087;48.392;10.836;2023-07-22T13:46:20;3.45;;;3.05;;
6113;SDS011;3087;48.392;10.836;2023-07-22T13:48:45;5.65;;;3.15;;
6113;SDS011;3087;48.392;10.836;2023-07-22T13:51:11;3.50;;;2.80;;
6113;SDS011;3087;48.392;10.836;2023-07-22T13:53:37;6.20;;;5.00;;
6113;SDS011;3087;48.392;10.836;2023-07-22T13:56:02;3.67;;;3.20;;
6113;SDS011;3087;48.392;10.836;2023-07-22T13:58:28;3.72;;;3.35;;
6113;SDS011;3087;48.392;10.836;2023-07-22T14:00:53;3.75;;;3.13;;
6113;SDS011;3087;48.392;10.836;2023-07-22T14:03:19;4.10;;;3.58;;
6113;SDS011;3087;48.392;10.836;2023-07-22T14:05:45;3.38;;;3.05;;
6113;SDS011;3087;48.392;10.836;2023-07-22T14:08:12;3.92;;;3.55;;
6113;SDS011;3087;48.392;10.836;2023-07-22T14:10:37;3.90;;;3.50;;
6113;SDS011;3087;48.392;10.836;2023-07-22T14:13:03;5.38;;;3.70;;
6113;SDS011;3087;48.392;10.836;2023-07-22T14:15:28;3.30;;;3.00;;
6113;SDS011;3087;48.392;10.836;2023-07-22T14:17:54;3.95;;;3.38;;
6113;SDS011;3087;48.392;10.836;2023-07-22T14:20:20;3.33;;;2.95;;
6113;SDS011;3087;48.392;10.836;2023-07-22T14:22:45;3.88;;;3.45;;
6113;SDS011;3087;48.392;10.836;2023-07-22T14:25:11;4.13;;;3.50;;
6113;SDS011;3087;48.392;10.836;2023-07-22T14:27:39;5.28;;;3.40;;
6113;SDS011;3087;48.392;10.836;2023-07-22T14:30:06;4.13;;;3.00;;
6113;SDS011;3087;48.392;10.836;2023-07-22T14:32:32;5.68;;;3.30;;
6113;SDS011;3087;48.392;10.836;2023-07-22T14:34:57;3.45;;;3.15;;
6113;SDS011;3087;48.392;10.836;2023-07-22T14:37:23;5.60;;;3.70;;
6113;SDS011;3087;48.392;10.836;2023-07-22T14:39:49;4.65;;;3.17;;
6113;SDS011;3087;48.392;10.836;2023-07-22T14:42:14;4.15;;;3.05;;
6113;SDS011;3087;48.392;10.836;2023-07-22T14:44:40;3.13;;;2.83;;
6113;SDS011;3087;48.392;10.836;2023-07-22T14:47:06;4.07;;;3.35;;
6113;SDS011;3087;48.392;10.836;2023-07-22T14:49:31;3.80;;;3.05;;
6113;SDS011;3087;48.392;10.836;2023-07-22T14:51:57;6.00;;;3.65;;
6113;SDS011;3087;48.392;10.836;2023-07-22T14:54:23;4.00;;;3.28;;
6113;SDS011;3087;48.392;10.836;2023-07-22T14:56:48;4.03;;;2.95;;
6113;SDS011;3087;48.392;10.836;2023-07-22T14:59:14;4.07;;;3.67;;
6113;SDS011;3087;48.392;10.836;2023-07-22T15:01:41;4.30;;;3.15;;
6113;SDS011;3087;48.392;10.836;2023-07-22T15:04:07;4.28;;;3.13;;
6113;SDS011;3087;48.392;10.836;2023-07-22T15:06:34;4.80;;;4.07;;
6113;SDS011;3087;48.392;10.836;2023-07-22T15:09:01;3.80;;;3.30;;
6113;SDS011;3087;48.392;10.836;2023-07-22T15:11:28;3.60;;;3.30;;
6113;SDS011;3087;48.392;10.836;2023-07-22T15:13:54;3.38;;;3.03;;